Time;durP1;ratioP1;P1;durP2;ratioP2;P2;SDS_P1;SDS_P2;PMS_P1;PMS_P2;Temp;Humidity;BMP_temperature;BMP_pressure;BME280_temperature;BME280_humidity;BME280_pressure;Samples;Min_cycle;Max_cycle;Signal;HPM_P1;HPM_P2
2023/08/27 00:00:45;;;;;;;0.00;0.00;;;21.20;99.90;;;;;;5005228;28;20025;-71
2023/08/27 00:03:11;;;;;;;0.00;0.00;;;21.20;99.90;;;;;;5012730;28;20068;-72
2023/08/27 00:05:43;;;;;;;0.00;0.00;;;21.20;99.90;;;;;;5012052;28;20026;-72
2023/08/27 00:08:10;;;;;;;0.00;0.00;;;21.20;99.90;;;;;;5007826;28;20392;-72
2023/08/27 00:10:36;;;;;;;0.00;0.00;;;21.20;99.90;;;;;;5008979;28;20022;-71
2023/08/27 00:13:02;;;;;;;0.00;0.00;;;21.10;99.90;;;;;;5011443;28;20035;-70
2023/08/27 00:15:27;;;;;;;0.00;0.00;;;21.20;99.90;;;;;;5000972;28;20184;-71
2023/08/27 00:17:54;;;;;;;0.00;0.00;;;21.20;99.90;;;;;;5012731;28;20032;-72
2023/08/27 00:20:20;;;;;;;0.00;0.00;;;21.20;99.90;;;;;;5005259;28;20481;-72
2023/08/27 00:22:46;;;;;;;0.00;0.00;;;21.30;99.90;;;;;;5007592;28;20461;-70
2023/08/27 00:25:11;;;;;;;0.00;0.00;;;21.30;99.90;;;;;;5015911;28;20052;-73
2023/08/27 00:27:37;;;;;;;0.08;0.08;;;21.30;99.90;;;;;;5006604;28;20033;-72
2023/08/27 00:30:04;;;;;;;0.00;0.00;;;21.30;99.90;;;;;;5005109;28;20036;-72
2023/08/27 00:32:33;;;;;;;0.00;0.00;;;21.20;99.90;;;;;;5012894;28;20021;-70
2023/08/27 00:34:59;;;;;;;0.00;0.00;;;21.20;99.90;;;;;;5012978;28;20037;-72
2023/08/27 00:37:24;;;;;;;0.17;0.10;;;21.30;99.90;;;;;;5012623;28;20014;-72
2023/08/27 00:39:50;;;;;;;0.00;0.00;;;21.30;99.90;;;;;;5010737;28;20018;-72
2023/08/27 00:42:16;;;;;;;0.00;0.00;;;21.30;99.90;;;;;;5004758;28;20060;-71
2023/08/27 00:44:42;;;;;;;0.00;0.00;;;21.20;99.90;;;;;;5009236;28;20109;-72
2023/08/27 00:47:08;;;;;;;0.00;0.00;;;21.20;99.90;;;;;;5009887;28;20106;-72
2023/08/27 00:49:35;;;;;;;0.00;0.00;;;21.30;99.90;;;;;;5007559;28;20037;-71
2023/08/27 00:52:01;;;;;;;0.00;0.00;;;21.30;99.90;;;;;;5007051;28;20048;-72
2023/08/27 00:54:27;;;;;;;0.00;0.00;;;21.30;99.90;;;;;;5010321;28;20021;-71
2023/08/27 00:56:53;;;;;;;0.00;0.00;;;21.40;99.90;;;;;;5007654;28;20048;-72
2023/08/27 00:59:19;;;;;;;0.00;0.00;;;21.40;99.90;;;;;;4999380;28;20573;-70
2023/08/27 01:01:45;;;;;;;0.00;0.00;;;21.40;99.90;;;;;;5012922;28;20025;-72
2023/08/27 01:04:11;;;;;;;0.93;0.13;;;21.40;99.90;;;;;;5008840;28;20087;-71
2023/08/27 01:06:37;;;;;;;0.00;0.00;;;21.30;99.90;;;;;;5015881;28;20548;-72
2023/08/27 01:09:10;;;;;;;0.00;0.00;;;21.30;99.90;;;;;;5015411;28;20520;-72
2023/08/27 01:12:00;;;;;;;0.00;0.00;;;21.30;99.90;;;;;;5011916;28;20458;-73
2023/08/27 01:14:32;;;;;;;0.00;0.00;;;21.20;99.90;;;;;;5011264;28;20380;-72
2023/08/27 01:17:00;;;;;;;0.00;0.00;;;21.20;99.90;;;;;;5034942;28;20084;-71
2023/08/27 01:19:27;;;;;;;0.00;0.00;;;21.20;99.90;;;;;;5015513;28;20489;-71
2023/08/27 01:21:53;;;;;;;0.00;0.00;;;21.10;99.90;;;;;;5007471;28;20053;-72
2023/08/27 01:24:19;;;;;;;0.00;0.00;;;21.10;99.90;;;;;;5015026;28;20060;-72
2023/08/27 01:27:03;;;;;;;0.00;0.00;;;21.10;99.90;;;;;;5014643;28;20026;-72
2023/08/27 01:29:54;;;;;;;0.00;0.00;;;21.00;99.90;;;;;;5005670;28;20041;-72
2023/08/27 01:32:28;;;;;;;0.00;0.00;;;21.00;99.90;;;;;;5013313;28;20112;-72
2023/08/27 01:34:55;;;;;;;0.00;0.00;;;20.90;99.90;;;;;;5014886;28;20041;-72
2023/08/27 01:37:21;;;;;;;0.15;0.15;;;21.00;99.90;;;;;;5014891;28;20029;-72
2023/08/27 01:39:58;;;;;;;0.00;0.00;;;21.00;99.90;;;;;;5014847;28;20594;-72
2023/08/27 01:42:23;;;;;;;0.00;0.00;;;21.10;99.90;;;;;;5004320;28;20021;-73
2023/08/27 01:44:49;;;;;;;0.10;0.10;;;21.10;99.90;;;;;;5013103;28;20053;-71
2023/08/27 01:47:15;;;;;;;0.00;0.00;;;21.10;99.90;;;;;;5015388;28;20018;-74
2023/08/27 01:49:40;;;;;;;0.00;0.00;;;21.10;99.90;;;;;;5014256;28;20116;-73
2023/08/27 01:52:06;;;;;;;0.00;0.00;;;21.10;99.90;;;;;;5011540;28;20037;-72
2023/08/27 01:54:34;;;;;;;0.00;0.00;;;21.10;99.90;;;;;;5010295;28;20042;-72
2023/08/27 01:57:00;;;;;;;0.00;0.00;;;21.00;99.90;;;;;;5006705;28;20507;-73
2023/08/27 01:59:26;;;;;;;0.00;0.00;;;21.00;99.90;;;;;;5005250;28;20029;-74
2023/08/27 02:01:51;;;;;;;0.00;0.00;;;21.00;99.90;;;;;;5013927;28;20175;-74
2023/08/27 02:04:17;;;;;;;0.00;0.00;;;20.90;99.90;;;;;;5013396;28;20148;-74
2023/08/27 02:06:42;;;;;;;0.10;0.03;;;20.90;99.90;;;;;;5012922;28;20746;-73
2023/08/27 02:09:08;;;;;;;0.00;0.00;;;20.80;99.90;;;;;;5010820;28;20033;-72
2023/08/27 02:11:34;;;;;;;0.00;0.00;;;20.80;99.90;;;;;;5013748;28;20052;-73
2023/08/27 02:13:59;;;;;;;0.00;0.00;;;20.70;99.90;;;;;;5007572;28;20053;-72
2023/08/27 02:16:25;;;;;;;0.00;0.00;;;20.70;99.90;;;;;;5014798;28;20076;-73
2023/08/27 02:18:51;;;;;;;0.20;0.20;;;20.80;99.90;;;;;;5005261;28;20029;-71
2023/08/27 02:21:16;;;;;;;0.00;0.00;;;20.80;99.90;;;;;;5013208;28;20041;-72
2023/08/27 02:23:42;;;;;;;0.00;0.00;;;20.80;99.90;;;;;;5010946;28;20117;-72
2023/08/27 02:26:08;;;;;;;0.00;0.00;;;20.80;99.90;;;;;;5007256;28;20030;-71
2023/08/27 02:28:33;;;;;;;0.00;0.00;;;20.70;99.90;;;;;;5013426;28;20033;-72
2023/08/27 02:30:59;;;;;;;0.20;0.00;;;20.70;99.90;;;;;;5008507;28;20038;-72
2023/08/27 02:33:25;;;;;;;0.00;0.00;;;20.50;99.90;;;;;;5011030;28;20068;-72
2023/08/27 02:35:51;;;;;;;0.00;0.00;;;20.20;99.90;;;;;;5011609;28;20038;-72
2023/08/27 02:38:18;;;;;;;0.00;0.00;;;20.10;99.90;;;;;;5013424;28;20028;-72
2023/08/27 02:40:43;;;;;;;0.10;0.00;;;19.90;99.90;;;;;;5008586;28;20057;-72
2023/08/27 02:43:09;;;;;;;0.00;0.00;;;19.80;99.90;;;;;;5009730;28;20084;-72
2023/08/27 02:45:35;;;;;;;0.10;0.00;;;19.80;99.90;;;;;;5008239;28;20033;-72
2023/08/27 02:48:00;;;;;;;0.00;0.00;;;19.80;99.90;;;;;;5002643;28;20440;-73
2023/08/27 02:50:26;;;;;;;0.00;0.00;;;19.90;99.90;;;;;;5015017;28;20045;-73
2023/08/27 02:52:52;;;;;;;0.00;0.00;;;20.00;99.90;;;;;;5009595;28;20029;-72
2023/08/27 02:55:18;;;;;;;0.00;0.00;;;20.00;99.90;;;;;;5011246;28;20120;-73
2023/08/27 02:57:43;;;;;;;0.00;0.00;;;19.80;99.90;;;;;;5009967;28;20025;-73
2023/08/27 03:00:10;;;;;;;0.00;0.00;;;19.70;99.90;;;;;;5005227;28;20026;-73
2023/08/27 03:02:36;;;;;;;0.00;0.00;;;19.60;99.90;;;;;;5013048;28;20668;-73
2023/08/27 03:05:04;;;;;;;0.00;0.00;;;19.60;99.90;;;;;;5011536;28;20021;-71
2023/08/27 03:07:30;;;;;;;0.00;0.00;;;19.50;99.90;;;;;;4999179;28;20556;-72
2023/08/27 03:09:56;;;;;;;0.00;0.00;;;19.50;99.90;;;;;;5008395;28;20024;-72
2023/08/27 03:12:21;;;;;;;0.00;0.00;;;19.60;99.90;;;;;;5011221;28;20073;-72
2023/08/27 03:14:47;;;;;;;0.00;0.00;;;19.70;99.90;;;;;;5009001;28;20044;-71
2023/08/27 03:17:13;;;;;;;0.00;0.00;;;19.80;99.90;;;;;;5008265;28;20044;-72
2023/08/27 03:19:39;;;;;;;0.00;0.00;;;19.80;99.90;;;;;;5010265;28;20548;-72
2023/08/27 03:22:04;;;;;;;0.00;0.00;;;19.70;99.90;;;;;;5009387;28;20033;-71
2023/08/27 03:24:30;;;;;;;0.00;0.00;;;19.70;99.90;;;;;;5012149;28;20021;-72
2023/08/27 03:26:55;;;;;;;0.00;0.00;;;19.70;99.90;;;;;;5010178;28;20100;-70
2023/08/27 03:29:21;;;;;;;0.00;0.00;;;19.80;99.90;;;;;;5002318;28;20103;-72
2023/08/27 03:31:47;;;;;;;0.00;0.00;;;19.70;99.90;;;;;;5008622;28;20058;-73
2023/08/27 03:34:13;;;;;;;0.00;0.00;;;19.60;99.90;;;;;;5012141;28;20481;-72
2023/08/27 03:36:40;;;;;;;;;;;19.60;99.90;;;;;;5001437;28;20041;-72
2023/08/27 03:39:05;;;;;;;0.00;0.00;;;19.60;99.90;;;;;;5002029;28;20328;-72
2023/08/27 03:41:31;;;;;;;0.00;0.00;;;19.50;99.90;;;;;;5006742;28;20037;-71
2023/08/27 03:43:57;;;;;;;0.00;0.00;;;19.30;99.90;;;;;;5003963;28;20018;-72
2023/08/27 03:46:22;;;;;;;0.00;0.00;;;19.30;99.90;;;;;;5006066;28;20014;-72
2023/08/27 03:48:48;;;;;;;0.00;0.00;;;19.40;99.90;;;;;;5009597;28;20038;-72
2023/08/27 03:51:14;;;;;;;0.00;0.00;;;19.40;99.90;;;;;;5010794;28;20031;-72
2023/08/27 03:53:40;;;;;;;0.00;0.00;;;19.60;99.90;;;;;;5004546;28;20049;-72
2023/08/27 03:56:06;;;;;;;0.00;0.00;;;19.60;99.90;;;;;;5010996;28;20131;-71
2023/08/27 03:58:32;;;;;;;0.00;0.00;;;19.70;99.90;;;;;;5016255;28;20029;-70
2023/08/27 04:00:58;;;;;;;0.00;0.00;;;19.70;99.90;;;;;;5005095;28;20489;-71
2023/08/27 04:03:24;;;;;;;0.00;0.00;;;19.60;99.90;;;;;;5012275;28;20358;-72
2023/08/27 04:05:50;;;;;;;0.00;0.00;;;19.60;99.90;;;;;;5005309;28;20038;-72
2023/08/27 04:08:19;;;;;;;0.00;0.00;;;19.70;99.90;;;;;;5011217;28;20036;-72
2023/08/27 04:10:54;;;;;;;0.17;0.00;;;19.80;99.90;;;;;;5008760;28;20030;-72
2023/08/27 04:13:20;;;;;;;0.15;0.08;;;19.80;99.90;;;;;;5004023;28;20044;-72
2023/08/27 04:15:56;;;;;;;0.00;0.00;;;19.80;99.90;;;;;;5007803;28;20065;-71
2023/08/27 04:18:22;;;;;;;0.00;0.00;;;19.70;99.90;;;;;;5010430;28;20041;-73
2023/08/27 04:20:49;;;;;;;0.00;0.00;;;19.70;99.90;;;;;;5001149;28;20026;-72
2023/08/27 04:23:15;;;;;;;0.00;0.00;;;19.60;99.90;;;;;;5007226;28;20473;-72
2023/08/27 04:25:43;;;;;;;0.00;0.00;;;19.60;99.90;;;;;;5009746;28;20044;-72
2023/08/27 04:28:09;;;;;;;0.00;0.00;;;19.40;99.90;;;;;;5010720;28;20799;-72
2023/08/27 04:30:35;;;;;;;0.43;0.43;;;19.50;99.90;;;;;;5003034;28;20035;-72
2023/08/27 04:33:01;;;;;;;0.00;0.00;;;19.50;99.90;;;;;;5012919;28;20120;-70
2023/08/27 04:35:26;;;;;;;0.00;0.00;;;19.50;99.90;;;;;;5005119;28;20751;-73
2023/08/27 04:37:52;;;;;;;0.00;0.00;;;19.50;99.90;;;;;;5013328;28;20030;-72
2023/08/27 04:40:18;;;;;;;0.00;0.00;;;19.60;99.90;;;;;;5008474;28;20030;-72
2023/08/27 04:42:43;;;;;;;0.00;0.00;;;19.60;99.90;;;;;;5011373;28;20041;-70
2023/08/27 04:45:10;;;;;;;0.00;0.00;;;19.70;99.90;;;;;;5008043;28;20040;-72
2023/08/27 04:47:35;;;;;;;0.00;0.00;;;19.90;99.90;;;;;;5013473;28;20034;-71
2023/08/27 04:50:01;;;;;;;0.03;0.03;;;20.00;99.90;;;;;;5006433;28;20072;-71
2023/08/27 04:52:27;;;;;;;0.00;0.00;;;20.20;99.90;;;;;;5009353;28;20029;-71
2023/08/27 04:54:52;;;;;;;0.00;0.00;;;20.20;99.90;;;;;;5008593;28;20029;-72
2023/08/27 04:57:18;;;;;;;0.00;0.00;;;20.30;99.90;;;;;;5012199;28;20052;-72
2023/08/27 04:59:44;;;;;;;0.60;0.30;;;20.60;99.90;;;;;;5006397;28;20076;-72
2023/08/27 05:02:09;;;;;;;0.00;0.00;;;20.90;99.90;;;;;;5012068;28;20034;-69
2023/08/27 05:04:35;;;;;;;0.00;0.00;;;21.20;99.90;;;;;;5011469;28;20017;-70
2023/08/27 05:07:01;;;;;;;0.10;0.10;;;21.20;99.90;;;;;;5017009;28;20661;-70
2023/08/27 05:09:26;;;;;;;0.00;0.00;;;21.30;99.90;;;;;;5013359;28;20037;-72
2023/08/27 05:11:52;;;;;;;0.30;0.10;;;21.40;99.90;;;;;;5012045;28;20029;-72
2023/08/27 05:14:18;;;;;;;0.00;0.00;;;21.50;99.90;;;;;;5010776;28;20785;-71
2023/08/27 05:16:44;;;;;;;0.00;0.00;;;21.50;99.90;;;;;;5012486;28;20484;-72
2023/08/27 05:19:09;;;;;;;0.32;0.22;;;21.40;99.90;;;;;;5014849;28;20385;-72
2023/08/27 05:21:36;;;;;;;0.00;0.00;;;21.50;99.90;;;;;;5008168;28;20083;-72
2023/08/27 05:24:02;;;;;;;0.00;0.00;;;21.60;99.90;;;;;;5011001;28;20384;-71
2023/08/27 05:26:27;;;;;;;0.00;0.00;;;21.60;99.90;;;;;;5003970;28;20029;-71
2023/08/27 05:28:55;;;;;;;0.00;0.00;;;21.50;99.90;;;;;;5012466;28;20625;-72
2023/08/27 05:31:20;;;;;;;0.00;0.00;;;21.70;99.90;;;;;;5005465;28;20100;-72
2023/08/27 05:33:46;;;;;;;0.00;0.00;;;21.80;99.90;;;;;;5011621;28;20041;-72
2023/08/27 05:36:12;;;;;;;0.00;0.00;;;21.90;99.90;;;;;;5011206;28;20061;-72
2023/08/27 05:38:37;;;;;;;0.05;0.00;;;21.90;99.90;;;;;;5009005;28;20104;-72
2023/08/27 05:41:03;;;;;;;0.00;0.00;;;21.90;99.90;;;;;;5014320;28;20473;-72
2023/08/27 05:43:28;;;;;;;0.00;0.00;;;22.00;99.90;;;;;;5006705;28;20108;-71
2023/08/27 05:45:54;;;;;;;0.00;0.00;;;22.00;99.90;;;;;;5007156;28;20030;-71
2023/08/27 05:48:20;;;;;;;0.00;0.00;;;22.00;99.90;;;;;;5014157;28;20040;-72
2023/08/27 05:50:45;;;;;;;0.00;0.00;;;21.80;99.90;;;;;;5009482;28;20832;-71
2023/08/27 05:53:11;;;;;;;0.15;0.15;;;21.70;99.90;;;;;;5011399;28;20582;-71
2023/08/27 05:55:37;;;;;;;0.00;0.00;;;21.70;99.90;;;;;;5007314;28;20132;-72
2023/08/27 05:58:06;;;;;;;0.00;0.00;;;21.50;99.90;;;;;;5010735;28;20476;-70
2023/08/27 06:00:32;;;;;;;0.00;0.00;;;21.50;99.90;;;;;;5004427;28;20030;-70
2023/08/27 06:02:58;;;;;;;;;;;21.50;99.90;;;;;;5013009;28;20496;-70
2023/08/27 06:05:24;;;;;;;0.00;0.00;;;21.60;99.90;;;;;;5010749;28;20055;-72
2023/08/27 06:07:50;;;;;;;0.00;0.00;;;21.80;99.90;;;;;;5014346;28;20064;-72
2023/08/27 06:10:16;;;;;;;0.00;0.00;;;22.00;99.90;;;;;;5009892;28;20116;-71
2023/08/27 06:12:41;;;;;;;0.00;0.00;;;22.10;99.90;;;;;;5005945;28;20040;-71
2023/08/27 06:15:07;;;;;;;0.00;0.00;;;22.00;99.90;;;;;;5005387;28;20479;-72
2023/08/27 06:17:33;;;;;;;0.22;0.22;;;22.00;99.90;;;;;;5007302;28;20056;-71
2023/08/27 06:19:58;;;;;;;0.00;0.00;;;22.10;99.90;;;;;;5011522;28;20089;-70
2023/08/27 06:22:25;;;;;;;0.00;0.00;;;22.30;99.90;;;;;;5013629;28;20033;-72
2023/08/27 06:24:50;;;;;;;;;;;22.70;99.90;;;;;;5011298;28;20499;-72
2023/08/27 06:27:16;;;;;;;0.00;0.00;;;22.90;99.90;;;;;;5003637;28;19913;-71
2023/08/27 06:29:45;;;;;;;0.00;0.00;;;22.90;99.90;;;;;;5005163;28;20049;-70
2023/08/27 06:32:13;;;;;;;0.00;0.00;;;23.40;99.90;;;;;;5006460;28;20468;-69
2023/08/27 06:34:38;;;;;;;0.00;0.00;;;24.10;99.90;;;;;;5011899;28;20036;-69
2023/08/27 06:37:04;;;;;;;0.00;0.00;;;24.60;99.90;;;;;;5011673;28;20029;-68
2023/08/27 06:39:30;;;;;;;0.00;0.00;;;24.30;99.90;;;;;;5011475;28;20416;-68
2023/08/27 06:41:56;;;;;;;0.00;0.00;;;24.20;99.90;;;;;;5010557;28;20029;-67
2023/08/27 06:44:21;;;;;;;0.00;0.00;;;24.60;99.90;;;;;;5011825;28;20038;-70
2023/08/27 06:46:47;;;;;;;;;;;25.30;99.90;;;;;;5004708;28;21212;-68
2023/08/27 06:49:13;;;;;;;0.00;0.00;;;25.60;99.90;;;;;;5005301;28;20369;-67
2023/08/27 06:51:38;;;;;;;;;;;26.60;99.90;;;;;;5010459;28;20033;-68
2023/08/27 06:54:04;;;;;;;0.00;0.00;;;27.00;99.90;;;;;;5002733;28;19936;-67
2023/08/27 06:56:30;;;;;;;0.00;0.00;;;27.10;99.90;;;;;;5008511;28;20060;-68
2023/08/27 06:58:55;;;;;;;0.03;0.03;;;27.80;99.90;;;;;;5007558;28;20022;-70
2023/08/27 07:01:21;;;;;;;0.00;0.00;;;28.70;99.10;;;;;;4998301;28;20034;-69
2023/08/27 07:03:47;;;;;;;0.00;0.00;;;29.50;98.00;;;;;;5005844;28;20080;-69
2023/08/27 07:06:13;;;;;;;0.00;0.00;;;31.20;96.10;;;;;;5005453;28;20040;-71
2023/08/27 07:08:39;;;;;;;0.00;0.00;;;31.50;94.30;;;;;;5006044;28;20040;-69
2023/08/27 07:11:04;;;;;;;0.00;0.00;;;32.00;92.90;;;;;;5011792;28;20022;-69
2023/08/27 07:13:30;;;;;;;0.05;0.05;;;32.30;92.10;;;;;;5004383;28;20032;-69
2023/08/27 07:15:57;;;;;;;0.00;0.00;;;31.40;92.40;;;;;;5009509;28;20049;-71
2023/08/27 07:18:23;;;;;;;0.00;0.00;;;31.20;92.20;;;;;;5007179;28;20055;-71
2023/08/27 07:20:49;;;;;;;0.00;0.00;;;30.80;92.40;;;;;;5008170;28;20499;-71
2023/08/27 07:23:15;;;;;;;0.32;0.30;;;30.60;92.60;;;;;;5003900;28;20087;-71
2023/08/27 07:25:41;;;;;;;0.00;0.00;;;29.70;93.60;;;;;;5000729;28;20424;-70
2023/08/27 07:28:07;;;;;;;0.00;0.00;;;29.40;93.70;;;;;;4999423;28;20034;-73
2023/08/27 07:30:33;;;;;;;0.00;0.00;;;28.60;94.70;;;;;;5000595;28;20025;-73
2023/08/27 07:32:59;;;;;;;0.00;0.00;;;28.40;95.40;;;;;;5002229;28;20056;-73
2023/08/27 07:35:25;;;;;;;0.43;0.10;;;28.30;95.50;;;;;;4999900;28;20053;-72
2023/08/27 07:38:00;;;;;;;0.00;0.00;;;29.40;95.40;;;;;;5011736;28;21580;-69
2023/08/27 07:40:26;;;;;;;0.00;0.00;;;31.40;92.90;;;;;;5015292;28;20033;-71
2023/08/27 07:42:52;;;;;;;0.00;0.00;;;33.00;91.40;;;;;;5001434;28;20381;-74
2023/08/27 07:45:20;;;;;;;0.00;0.00;;;33.10;90.40;;;;;;5001764;28;20917;-70
2023/08/27 07:47:46;;;;;;;0.00;0.00;;;33.50;89.70;;;;;;5003692;28;20501;-73
2023/08/27 07:50:12;;;;;;;0.00;0.00;;;33.50;88.40;;;;;;5006281;28;20030;-72
2023/08/27 07:52:38;;;;;;;0.00;0.00;;;33.90;87.20;;;;;;5006948;28;20542;-75
2023/08/27 07:55:04;;;;;;;0.00;0.00;;;34.00;86.70;;;;;;5003386;28;20057;-73
2023/08/27 07:57:29;;;;;;;0.00;0.00;;;34.70;85.20;;;;;;5006107;28;20040;-72
2023/08/27 07:59:55;;;;;;;0.00;0.00;;;33.90;84.60;;;;;;5001415;28;20411;-74
2023/08/27 08:02:21;;;;;;;0.00;0.00;;;34.00;85.50;;;;;;5004112;28;20026;-71
2023/08/27 08:04:47;;;;;;;0.00;0.00;;;34.40;84.40;;;;;;5004789;28;20025;-63
2023/08/27 08:07:12;;;;;;;0.00;0.00;;;35.50;82.60;;;;;;4998652;28;20025;-73
2023/08/27 08:09:38;;;;;;;0.00;0.00;;;36.20;80.50;;;;;;5002889;28;20040;-74
2023/08/27 08:12:04;;;;;;;0.00;0.00;;;37.00;78.80;;;;;;5001720;28;20076;-74
2023/08/27 08:14:31;;;;;;;0.00;0.00;;;37.70;77.50;;;;;;5007943;28;20029;-73
2023/08/27 08:16:57;;;;;;;0.05;0.00;;;37.70;75.20;;;;;;5007247;28;20017;-74
2023/08/27 08:19:22;;;;;;;0.00;0.00;;;37.80;74.50;;;;;;5013333;28;20040;-72
2023/08/27 08:21:48;;;;;;;0.00;0.00;;;38.10;73.00;;;;;;5015414;28;20025;-73
2023/08/27 08:24:14;;;;;;;0.00;0.00;;;38.80;71.70;;;;;;5001422;28;20100;-73
2023/08/27 08:26:39;;;;;;;0.00;0.00;;;39.20;71.40;;;;;;5005594;28;20033;-74
2023/08/27 08:29:05;;;;;;;0.10;0.10;;;38.80;69.10;;;;;;5003542;28;20022;-72
2023/08/27 08:31:31;;;;;;;0.00;0.00;;;39.10;68.50;;;;;;5013140;28;20080;-73
2023/08/27 08:33:56;;;;;;;0.00;0.00;;;39.20;68.90;;;;;;5006142;28;20049;-74
2023/08/27 08:36:22;;;;;;;0.00;0.00;;;39.50;68.60;;;;;;5006118;28;20500;-73
2023/08/27 08:38:47;;;;;;;0.00;0.00;;;39.40;67.30;;;;;;5008796;28;20026;-73
2023/08/27 08:41:19;;;;;;;0.00;0.00;;;38.10;69.10;;;;;;5003960;28;20029;-73
2023/08/27 08:43:56;;;;;;;0.00;0.00;;;37.00;69.60;;;;;;5010988;28;20041;-73
2023/08/27 08:46:23;;;;;;;0.00;0.00;;;36.70;70.50;;;;;;5002025;28;20029;-72
2023/08/27 08:48:51;;;;;;;0.00;0.00;;;35.50;71.40;;;;;;5000317;28;20792;-73
2023/08/27 08:51:27;;;;;;;0.00;0.00;;;33.80;73.90;;;;;;5011588;28;20101;-73
2023/08/27 08:53:58;;;;;;;0.00;0.00;;;33.10;75.40;;;;;;4999594;28;20125;-75
2023/08/27 08:56:44;;;;;;;0.00;0.00;;;32.50;76.60;;;;;;5003002;28;20057;-74
2023/08/27 08:59:10;;;;;;;0.00;0.00;;;31.90;78.50;;;;;;5005191;28;20421;-74
2023/08/27 09:01:36;;;;;;;0.15;0.03;;;31.70;79.30;;;;;;5002756;28;20040;-75
2023/08/27 09:04:06;;;;;;;0.00;0.00;;;32.00;79.60;;;;;;5004813;28;20018;-74
2023/08/27 09:06:33;;;;;;;0.00;0.00;;;32.90;77.50;;;;;;4996620;28;20060;-74
2023/08/27 09:09:01;;;;;;;0.00;0.00;;;33.40;77.40;;;;;;5003288;28;20583;-75
2023/08/27 09:11:27;;;;;;;0.00;0.00;;;33.10;76.40;;;;;;5009968;28;20025;-74
2023/08/27 09:13:54;;;;;;;0.00;0.00;;;32.70;77.60;;;;;;5003635;28;20025;-74
2023/08/27 09:16:20;;;;;;;0.00;0.00;;;31.20;79.60;;;;;;5009785;28;20722;-72
2023/08/27 09:18:46;;;;;;;0.00;0.00;;;30.10;82.70;;;;;;5005037;28;20355;-71
2023/08/27 09:21:12;;;;;;;0.05;0.00;;;30.80;82.80;;;;;;5004790;28;20025;-72
2023/08/27 09:23:37;;;;;;;0.00;0.00;;;31.00;81.20;;;;;;5006424;28;20026;-73
2023/08/27 09:26:04;;;;;;;0.10;0.10;;;30.60;81.90;;;;;;5009873;28;20030;-72
2023/08/27 09:28:31;;;;;;;0.00;0.00;;;30.10;83.60;;;;;;5004077;28;20037;-73
2023/08/27 09:31:00;;;;;;;0.00;0.00;;;29.60;85.30;;;;;;5002839;28;20342;-72
2023/08/27 09:33:40;;;;;;;0.40;0.40;;;30.20;84.60;;;;;;5007440;28;20104;-72
2023/08/27 09:36:07;;;;;;;0.00;0.00;;;29.70;84.90;;;;;;5010314;28;20030;-73
2023/08/27 09:38:34;;;;;;;0.10;0.00;;;29.40;86.20;;;;;;5011777;28;20080;-73
2023/08/27 09:41:16;;;;;;;0.00;0.00;;;28.90;88.20;;;;;;5009219;28;20021;-72
2023/08/27 09:43:54;;;;;;;0.00;0.00;;;29.00;88.10;;;;;;5003046;28;20040;-73
2023/08/27 09:46:20;;;;;;;0.00;0.00;;;29.00;88.20;;;;;;5010902;28;20714;-73
2023/08/27 09:49:07;;;;;;;0.00;0.00;;;29.00;88.70;;;;;;5004717;28;20029;-70
2023/08/27 09:51:37;;;;;;;0.00;0.00;;;29.00;88.50;;;;;;5008906;28;20396;-70
2023/08/27 09:54:19;;;;;;;0.00;0.00;;;29.40;88.40;;;;;;5006080;28;20618;-70
2023/08/27 09:56:46;;;;;;;0.00;0.00;;;29.40;89.00;;;;;;5007976;28;20033;-72
2023/08/27 09:59:16;;;;;;;0.00;0.00;;;30.80;86.60;;;;;;5004499;28;20535;-69
2023/08/27 10:01:46;;;;;;;0.00;0.00;;;32.40;83.40;;;;;;4998448;28;20141;-73
2023/08/27 10:04:12;;;;;;;0.00;0.00;;;33.60;81.90;;;;;;5014425;28;20021;-72
2023/08/27 11:07:59;;;;;;;0.00;0.00;;;31.90;81.80;;;;;;5052231;27;20434;-71
2023/08/27 11:10:32;;;;;;;0.00;0.00;;;32.20;81.20;;;;;;5038295;28;20509;-72
2023/08/27 11:12:58;;;;;;;1.02;0.30;;;32.60;80.40;;;;;;5042765;28;20024;-72
2023/08/27 11:15:32;;;;;;;0.30;0.10;;;32.90;79.40;;;;;;5038544;28;20033;-73
2023/08/27 11:18:01;;;;;;;0.00;0.00;;;32.50;80.30;;;;;;5037244;28;20684;-74
2023/08/27 11:20:28;;;;;;;0.00;0.00;;;32.60;80.50;;;;;;5043323;28;20167;-67
2023/08/27 11:23:02;;;;;;;0.00;0.00;;;32.80;81.90;;;;;;5035434;28;20036;-66
2023/08/27 11:25:31;;;;;;;0.00;0.00;;;32.70;83.50;;;;;;5071509;28;20025;-65
2023/08/27 11:28:00;;;;;;;0.00;0.00;;;32.70;84.10;;;;;;5076233;28;20029;-72
2023/08/27 11:30:27;;;;;;;0.10;0.10;;;32.50;84.70;;;;;;5039109;28;20321;-70
2023/08/27 11:32:56;;;;;;;0.00;0.00;;;32.20;85.40;;;;;;5038754;28;20029;-70
2023/08/27 11:35:26;;;;;;;0.10;0.10;;;32.00;86.00;;;;;;5042019;28;20859;-71
2023/08/27 11:37:53;;;;;;;0.00;0.00;;;31.70;86.70;;;;;;5034559;28;20052;-70
2023/08/27 11:40:19;;;;;;;0.03;0.00;;;31.50;87.60;;;;;;5039948;28;20029;-69
2023/08/27 11:42:57;;;;;;;0.10;0.10;;;31.20;87.90;;;;;;5034489;28;20100;-71
2023/08/27 11:45:30;;;;;;;0.00;0.00;;;31.10;89.20;;;;;;5038683;28;20045;-69
2023/08/27 11:48:02;;;;;;;0.00;0.00;;;31.10;89.10;;;;;;5041786;28;20047;-69
2023/08/27 11:50:27;;;;;;;0.00;0.00;;;30.80;89.10;;;;;;5042312;28;20017;-69
2023/08/27 11:52:55;;;;;;;0.10;0.10;;;30.80;89.40;;;;;;5030694;28;20485;-70
2023/08/27 11:55:23;;;;;;;0.00;0.00;;;30.80;89.90;;;;;;5037607;28;20096;-71
2023/08/27 11:57:51;;;;;;;0.00;0.00;;;30.80;90.00;;;;;;5036852;28;20064;-69
2023/08/27 12:00:17;;;;;;;0.00;0.00;;;30.80;90.20;;;;;;5034046;28;20041;-72
2023/08/27 12:02:43;;;;;;;0.00;0.00;;;30.90;90.00;;;;;;5033918;28;20072;-70
2023/08/27 12:05:12;;;;;;;0.00;0.00;;;30.90;90.00;;;;;;5038695;28;20139;-71
2023/08/27 12:07:38;;;;;;;0.47;0.10;;;30.80;89.80;;;;;;5035408;28;20464;-72
2023/08/27 12:10:08;;;;;;;0.22;0.22;;;30.50;90.20;;;;;;5033441;28;20101;-72
2023/08/27 12:12:46;;;;;;;0.00;0.00;;;30.20;90.40;;;;;;5037302;28;20479;-72
2023/08/27 12:15:13;;;;;;;0.10;0.10;;;29.90;90.90;;;;;;5036848;28;20017;-72
2023/08/27 12:17:38;;;;;;;0.00;0.00;;;29.70;91.10;;;;;;5036690;28;20021;-72
2023/08/27 12:20:07;;;;;;;0.10;0.10;;;29.60;91.60;;;;;;5024002;28;20546;-71
2023/08/27 12:22:43;;;;;;;0.40;0.10;;;29.40;91.20;;;;;;5020881;28;20489;-72
2023/08/27 12:25:09;;;;;;;0.00;0.00;;;29.30;91.50;;;;;;5018966;28;20048;-71
2023/08/27 12:27:35;;;;;;;0.00;0.00;;;29.20;91.60;;;;;;5021879;28;20045;-72
2023/08/27 12:30:04;;;;;;;0.25;0.25;;;29.00;91.70;;;;;;5024614;28;20578;-72
2023/08/27 12:32:32;;;;;;;0.00;0.00;;;29.00;91.60;;;;;;5018127;28;20021;-72
2023/08/27 12:34:58;;;;;;;0.00;0.00;;;28.90;91.70;;;;;;5022870;28;20021;-71
2023/08/27 12:37:25;;;;;;;0.00;0.00;;;28.80;91.60;;;;;;5022581;28;20033;-72
2023/08/27 12:39:51;;;;;;;0.13;0.13;;;28.70;91.70;;;;;;5019469;28;20573;-71
2023/08/27 12:42:17;;;;;;;0.08;0.08;;;28.70;91.80;;;;;;5024527;28;20591;-72
2023/08/27 12:44:44;;;;;;;0.00;0.00;;;28.80;91.90;;;;;;5022711;28;20021;-72
2023/08/27 12:47:11;;;;;;;0.08;0.08;;;28.80;91.80;;;;;;5021738;28;20080;-72
2023/08/27 12:49:38;;;;;;;0.00;0.00;;;28.80;91.90;;;;;;5015722;28;20017;-71
2023/08/27 12:52:04;;;;;;;0.00;0.00;;;28.50;91.80;;;;;;5029423;28;20017;-71
2023/08/27 12:54:31;;;;;;;0.00;0.00;;;28.50;92.20;;;;;;5019428;28;20524;-71
2023/08/27 12:56:57;;;;;;;0.00;0.00;;;28.70;92.10;;;;;;5022521;28;20051;-71
2023/08/27 12:59:24;;;;;;;0.03;0.03;;;28.90;91.90;;;;;;5018472;28;20038;-72
2023/08/27 13:01:51;;;;;;;0.00;0.00;;;28.80;91.90;;;;;;5028987;28;20427;-72
2023/08/27 13:04:18;;;;;;;0.10;0.00;;;28.70;91.60;;;;;;5021320;28;20060;-71
2023/08/27 13:06:45;;;;;;;0.00;0.00;;;28.50;91.80;;;;;;5031733;28;20033;-71
2023/08/27 13:09:14;;;;;;;0.00;0.00;;;28.10;92.30;;;;;;5019727;28;20021;-71
2023/08/27 13:11:42;;;;;;;0.03;0.03;;;27.90;92.40;;;;;;5013853;28;20473;-71
2023/08/27 13:14:09;;;;;;;0.30;0.30;;;27.80;92.90;;;;;;5019718;28;20354;-72
2023/08/27 13:16:39;;;;;;;0.52;0.47;;;27.70;93.10;;;;;;5022038;28;20120;-71
2023/08/27 13:19:07;;;;;;;0.00;0.00;;;27.60;93.20;;;;;;5017595;28;20029;-71
2023/08/27 13:21:33;;;;;;;0.00;0.00;;;27.60;93.60;;;;;;5028660;28;20024;-72
2023/08/27 13:24:03;;;;;;;0.05;0.05;;;27.70;93.70;;;;;;5026697;28;20025;-72
2023/08/27 13:26:30;;;;;;;0.00;0.00;;;27.90;93.50;;;;;;5019358;28;20121;-71
2023/08/27 13:28:56;;;;;;;0.00;0.00;;;28.00;93.20;;;;;;5021016;28;20068;-72
2023/08/27 13:31:22;;;;;;;0.00;0.00;;;28.20;93.10;;;;;;5015889;28;20935;-71
2023/08/27 13:33:49;;;;;;;0.00;0.00;;;28.20;92.80;;;;;;5018690;28;20060;-71
2023/08/27 13:36:15;;;;;;;0.00;0.00;;;28.30;92.80;;;;;;5015443;28;20112;-72
2023/08/27 13:38:42;;;;;;;0.05;0.05;;;28.40;93.00;;;;;;5028837;28;20029;-72
2023/08/27 13:41:09;;;;;;;0.00;0.00;;;28.40;92.80;;;;;;5018313;28;20025;-72
2023/08/27 13:43:36;;;;;;;0.00;0.00;;;28.20;92.90;;;;;;5027789;28;20469;-73
2023/08/27 13:46:03;;;;;;;0.00;0.00;;;28.00;93.20;;;;;;5024565;28;20021;-72
2023/08/27 13:48:29;;;;;;;0.00;0.00;;;27.90;93.50;;;;;;5025255;28;20105;-72